Time;durP1;ratioP1;P1;durP2;ratioP2;P2;SDS_P1;SDS_P2;PMS_P1;PMS_P2;Temp;Humidity;BMP_temperature;BMP_pressure;BME280_temperature;BME280_humidity;BME280_pressure;Samples;Min_cycle;Max_cycle;Signal;HPM_P1;HPM_P2
2022/09/29 00:01:49;;;;;;;;;;;7.80;99.90;;;;;;4964610;28;19934;-82
2022/09/29 00:04:15;;;;;;;;;;;7.80;99.90;;;;;;4974390;28;19953;-84
2022/09/29 00:06:40;;;;;;;;;;;7.80;99.90;;;;;;4985595;28;19933;-84
2022/09/29 00:09:06;;;;;;;;;;;7.70;99.90;;;;;;4984828;28;20327;-84
2022/09/29 00:11:31;;;;;;;;;;;7.70;99.90;;;;;;4985059;28;19957;-83
2022/09/29 00:13:57;;;;;;;;;;;7.70;99.90;;;;;;4986016;28;19926;-84
2022/09/29 00:16:23;;;;;;;;;;;7.70;99.90;;;;;;4984084;28;19932;-85
2022/09/29 00:18:48;;;;;;;;;;;7.60;99.90;;;;;;4984911;28;19932;-81
2022/09/29 00:21:15;;;;;;;;;;;7.60;99.90;;;;;;4983670;28;19926;-81
2022/09/29 00:23:41;;;;;;;;;;;7.70;99.90;;;;;;4982862;28;19926;-81
2022/09/29 00:26:08;;;;;;;;;;;7.60;99.90;;;;;;4985269;28;19949;-85
2022/09/29 00:28:34;;;;;;;;;;;7.60;99.90;;;;;;4985390;28;19932;-84
2022/09/29 00:31:00;;;;;;;;;;;7.60;99.90;;;;;;4986088;28;19948;-82
2022/09/29 00:33:30;;;;;;;;;;;7.60;99.90;;;;;;4984169;28;20005;-84
2022/09/29 00:36:00;;;;;;;;;;;7.60;99.90;;;;;;4985501;28;20269;-84
2022/09/29 00:38:26;;;;;;;;;;;7.60;99.90;;;;;;4983282;28;20443;-81
2022/09/29 00:40:51;;;;;;;;;;;7.60;99.90;;;;;;4985019;28;20150;-85
2022/09/29 00:43:20;;;;;;;;;;;7.60;99.90;;;;;;4985410;28;19929;-81
2022/09/29 00:45:45;;;;;;;;;;;7.50;99.90;;;;;;4984878;28;19930;-83
2022/09/29 00:48:16;;;;;;;;;;;7.50;99.90;;;;;;4985416;28;19926;-84
2022/09/29 00:50:47;;;;;;;;;;;7.50;99.90;;;;;;4984930;28;20349;-80
2022/09/29 00:53:14;;;;;;;;;;;7.40;99.90;;;;;;4987696;28;20035;-82
2022/09/29 00:55:50;;;;;;;;;;;7.40;99.90;;;;;;5003412;28;19922;-85
2022/09/29 00:58:21;;;;;;;;;;;7.40;99.90;;;;;;4988389;28;19981;-85
2022/09/29 01:00:47;;;;;;;;;;;7.40;99.90;;;;;;4987756;28;19926;-81
2022/09/29 01:03:15;;;;;;;;;;;7.40;99.90;;;;;;4988174;28;20435;-85
2022/09/29 01:05:46;;;;;;;;;;;7.40;99.90;;;;;;4987784;28;19929;-85
2022/09/29 01:08:31;;;;;;;;;;;7.40;99.90;;;;;;4986087;28;20376;-82
2022/09/29 01:10:59;;;;;;;;;;;7.40;99.90;;;;;;4992763;28;19925;-85
2022/09/29 01:13:25;;;;;;;;;;;7.30;99.90;;;;;;4987364;28;19933;-79
2022/09/29 01:15:50;;;;;;;;;;;7.30;99.90;;;;;;4986568;28;19926;-85
2022/09/29 01:18:16;;;;;;;;;;;7.40;99.90;;;;;;5003118;28;20017;-84
2022/09/29 01:20:50;;;;;;;;;;;7.40;99.90;;;;;;4987347;28;19926;-82
2022/09/29 01:23:21;;;;;;;;;;;7.30;99.90;;;;;;4986994;28;20020;-83
2022/09/29 01:26:06;;;;;;;;;;;7.40;99.90;;;;;;4986191;28;19925;-84
2022/09/29 01:28:32;;;;;;;;;;;7.40;99.90;;;;;;4987729;28;19969;-83
2022/09/29 01:31:10;;;;;;;;;;;7.30;99.90;;;;;;4986859;28;20513;-81
2022/09/29 01:33:47;;;;;;;;;;;7.30;99.90;;;;;;4986180;28;19929;-85
2022/09/29 01:36:23;;;;;;;;;;;7.20;99.90;;;;;;4986284;28;19953;-84
2022/09/29 01:39:04;;;;;;;;;;;7.20;99.90;;;;;;4986660;28;20308;-81
2022/09/29 01:41:33;;;;;;;;;;;7.20;99.90;;;;;;4987796;28;19925;-81
2022/09/29 01:44:07;;;;;;;;;;;7.20;99.90;;;;;;4986449;28;20068;-84
2022/09/29 01:46:36;;;;;;;;;;;7.20;99.90;;;;;;4987276;28;19926;-80
2022/09/29 01:49:03;;;;;;;;;;;7.10;99.90;;;;;;5002649;28;20603;-83
2022/09/29 01:51:31;;;;;;;;;;;7.10;99.90;;;;;;4987839;28;19933;-83
2022/09/29 01:53:59;;;;;;;;;;;7.10;99.90;;;;;;4986716;28;20067;-85
2022/09/29 01:56:28;;;;;;;;;;;7.10;99.90;;;;;;4986559;28;19932;-85
2022/09/29 01:58:55;;;;;;;;;;;7.10;99.90;;;;;;4987036;28;19930;-81
2022/09/29 02:01:23;;;;;;;;;;;7.10;99.90;;;;;;4987117;28;20277;-82
2022/09/29 02:04:03;;;;;;;;;;;7.10;99.90;;;;;;4986125;28;19969;-81
2022/09/29 02:06:35;;;;;;;;;;;7.10;99.90;;;;;;5002443;28;20013;-82
2022/09/29 02:09:02;;;;;;;;;;;7.10;99.90;;;;;;4986052;28;19925;-85
2022/09/29 02:11:30;;;;;;;;;;;7.10;99.90;;;;;;4987354;28;20522;-85
2022/09/29 02:14:02;;;;;;;;;;;7.10;99.90;;;;;;4986899;28;20383;-84
2022/09/29 02:16:29;;;;;;;;;;;7.00;99.90;;;;;;4986327;28;19933;-83
2022/09/29 02:19:05;;;;;;;;;;;7.00;99.90;;;;;;4986008;28;20020;-81
2022/09/29 02:21:30;;;;;;;;;;;7.00;99.90;;;;;;5001891;28;19926;-84
2022/09/29 02:23:56;;;;;;;;;;;7.00;99.90;;;;;;5001287;28;19932;-84
2022/09/29 02:26:23;;;;;;;;;;;7.00;99.90;;;;;;4985255;28;19926;-81
2022/09/29 02:28:48;;;;;;;;;;;7.00;99.90;;;;;;4986689;28;19926;-84
2022/09/29 02:31:15;;;;;;;;;;;7.00;99.90;;;;;;4986966;28;20347;-83
2022/09/29 02:33:41;;;;;;;;;;;6.90;99.90;;;;;;4986173;28;19933;-84
2022/09/29 02:36:26;;;;;;;;;;;6.90;99.90;;;;;;4986591;28;19925;-84
2022/09/29 02:38:53;;;;;;;;;;;6.90;99.90;;;;;;4985264;28;19933;-83
2022/09/29 02:41:31;;;;;;;;;;;6.90;99.90;;;;;;4985875;28;20020;-83
2022/09/29 02:44:09;;;;;;;;;;;6.90;99.90;;;;;;4987092;28;19933;-79
2022/09/29 02:46:53;;;;;;;;;;;6.90;99.90;;;;;;5001187;28;20504;-83
2022/09/29 02:49:25;;;;;;;;;;;6.90;99.90;;;;;;4984875;28;19937;-81
2022/09/29 02:51:57;;;;;;;;;;;6.90;99.90;;;;;;4985914;28;19926;-85
2022/09/29 02:54:38;;;;;;;;;;;6.90;99.90;;;;;;4986154;28;19926;-83
2022/09/29 02:57:16;;;;;;;;;;;6.90;99.90;;;;;;4985037;28;19926;-82
2022/09/29 02:59:49;;;;;;;;;;;6.90;99.90;;;;;;4966337;28;19961;-82
2022/09/29 03:02:15;;;;;;;;;;;6.90;99.90;;;;;;4965436;28;20016;-83
2022/09/29 03:04:40;;;;;;;;;;;6.80;99.90;;;;;;4966336;28;20437;-84
2022/09/29 03:07:06;;;;;;;;;;;6.80;99.90;;;;;;4964150;28;19973;-84
2022/09/29 03:09:32;;;;;;;;;;;6.80;99.90;;;;;;4966483;28;19981;-80
2022/09/29 03:11:58;;;;;;;;;;;6.80;99.90;;;;;;4965422;28;20389;-80
2022/09/29 03:14:23;;;;;;;;;;;6.80;99.90;;;;;;4966464;28;19937;-81
2022/09/29 03:16:49;;;;;;;;;;;6.80;99.90;;;;;;4976692;28;20521;-83
2022/09/29 03:19:15;;;;;;;;;;;6.80;99.90;;;;;;4985881;28;19926;-84
2022/09/29 03:21:40;;;;;;;;;;;6.80;99.90;;;;;;4985932;28;20350;-83
2022/09/29 03:24:05;;;;;;;;;;;6.80;99.90;;;;;;4985062;28;19928;-83
2022/09/29 03:26:32;;;;;;;;;;;6.70;99.90;;;;;;4984264;28;19926;-80
2022/09/29 03:28:57;;;;;;;;;;;6.80;99.90;;;;;;4984732;28;19933;-83
2022/09/29 03:31:23;;;;;;;;;;;6.70;99.90;;;;;;4985760;28;20029;-83
2022/09/29 03:33:48;;;;;;;;;;;6.80;99.90;;;;;;4985122;28;19926;-82
2022/09/29 03:36:14;;;;;;;;;;;6.70;99.90;;;;;;4984755;28;19922;-83
2022/09/29 03:38:39;;;;;;;;;;;6.70;99.90;;;;;;4984290;28;19937;-82
2022/09/29 03:41:05;;;;;;;;;;;6.80;99.90;;;;;;4985344;28;20304;-81
2022/09/29 03:43:31;;;;;;;;;;;6.70;99.90;;;;;;5000221;28;20451;-81
2022/09/29 03:45:57;;;;;;;;;;;6.70;99.90;;;;;;5001123;28;19929;-83
2022/09/29 03:48:23;;;;;;;;;;;6.70;99.90;;;;;;4985435;28;19972;-81
2022/09/29 03:50:49;;;;;;;;;;;6.70;99.90;;;;;;4984259;28;20035;-82
2022/09/29 03:53:14;;;;;;;;;;;6.60;99.90;;;;;;4984552;28;19932;-80
2022/09/29 03:55:44;;;;;;;;;;;6.60;99.90;;;;;;4985063;28;19951;-82
2022/09/29 03:58:10;;;;;;;;;;;6.60;99.90;;;;;;4985575;28;20487;-85
2022/09/29 04:00:35;;;;;;;;;;;6.60;99.90;;;;;;4985175;28;19930;-84
2022/09/29 04:03:01;;;;;;;;;;;6.60;99.90;;;;;;4983809;28;19988;-79
2022/09/29 04:05:27;;;;;;;;;;;6.70;99.90;;;;;;4985615;28;20427;-84
2022/09/29 04:07:53;;;;;;;;;;;6.70;99.90;;;;;;4984011;28;20012;-84
2022/09/29 04:10:18;;;;;;;;;;;6.70;99.90;;;;;;4984834;28;20020;-83
2022/09/29 04:12:44;;;;;;;;;;;6.70;99.90;;;;;;4985113;28;19929;-83
2022/09/29 04:15:09;;;;;;;;;;;6.70;99.90;;;;;;4984424;28;20262;-83
2022/09/29 04:17:35;;;;;;;;;;;6.80;99.90;;;;;;4985501;28;19930;-83
2022/09/29 04:20:01;;;;;;;;;;;6.70;99.90;;;;;;4985372;28;19926;-83
2022/09/29 04:22:26;;;;;;;;;;;6.80;99.90;;;;;;4984938;28;19926;-82
2022/09/29 04:24:52;;;;;;;;;;;6.70;99.90;;;;;;4983337;28;19926;-83
2022/09/29 04:27:18;;;;;;;;;;;6.70;99.90;;;;;;4987739;28;19988;-81
2022/09/29 04:29:43;;;;;;;;;;;6.70;99.90;;;;;;4988857;28;19925;-81
2022/09/29 04:32:09;;;;;;;;;;;6.70;99.90;;;;;;4986748;28;20450;-81
2022/09/29 04:34:35;;;;;;;;;;;6.70;99.90;;;;;;4986944;28;19984;-82
2022/09/29 04:37:00;;;;;;;;;;;6.70;99.90;;;;;;4996645;28;19925;-80
2022/09/29 04:39:29;;;;;;;;;;;6.70;99.90;;;;;;5003006;28;19933;-82
2022/09/29 04:41:54;;;;;;;;;;;6.70;99.90;;;;;;5008308;28;19926;-82
2022/09/29 04:44:21;;;;;;;;;;;6.60;99.90;;;;;;4988191;28;19926;-82
2022/09/29 04:46:50;;;;;;;;;;;6.70;99.90;;;;;;4988134;28;19934;-87
2022/09/29 04:49:16;;;;;;;;;;;6.70;99.90;;;;;;4988013;28;19941;-84
2022/09/29 04:51:42;;;;;;;;;;;6.70;99.90;;;;;;4993501;28;19976;-81
2022/09/29 04:54:07;;;;;;;;;;;6.70;99.90;;;;;;5001641;28;20470;-83
2022/09/29 04:56:33;;;;;;;;;;;6.70;99.90;;;;;;4993820;28;19926;-85
2022/09/29 04:58:58;;;;;;;;;;;6.70;99.90;;;;;;4988755;28;19933;-85
2022/09/29 05:01:24;;;;;;;;;;;6.60;99.90;;;;;;4993259;28;19926;-83
2022/09/29 05:03:49;;;;;;;;;;;6.70;99.90;;;;;;4988335;28;19984;-79
2022/09/29 05:06:16;;;;;;;;;;;6.70;99.90;;;;;;4988468;28;19926;-81
2022/09/29 05:08:41;;;;;;;;;;;6.70;99.90;;;;;;4987104;28;19973;-76
2022/09/29 05:11:07;;;;;;;;;;;6.70;99.90;;;;;;4992508;28;19984;-83
2022/09/29 05:13:33;;;;;;;;;;;6.70;99.90;;;;;;4991109;28;20277;-81
2022/09/29 05:15:59;;;;;;;;;;;6.70;99.90;;;;;;4988706;28;20055;-81
2022/09/29 05:18:24;;;;;;;;;;;6.70;99.90;;;;;;4986999;28;19934;-79
2022/09/29 05:20:50;;;;;;;;;;;6.70;99.90;;;;;;4987807;28;20308;-79
2022/09/29 05:23:16;;;;;;;;;;;6.70;99.90;;;;;;4987819;28;19930;-79
2022/09/29 05:25:42;;;;;;;;;;;6.70;99.90;;;;;;4988393;28;19980;-79
2022/09/29 05:28:09;;;;;;;;;;;6.70;99.90;;;;;;4987781;28;19933;-78
2022/09/29 05:30:35;;;;;;;;;;;6.70;99.90;;;;;;4990753;28;20280;-79
2022/09/29 05:33:00;;;;;;;;;;;6.70;99.90;;;;;;5003922;28;19980;-79
2022/09/29 05:35:26;;;;;;;;;;;6.70;99.90;;;;;;4984567;28;20499;-76
2022/09/29 05:37:51;;;;;;;;;;;6.70;99.90;;;;;;4984447;28;19933;-75
2022/09/29 05:40:18;;;;;;;;;;;6.70;99.90;;;;;;4987429;28;20269;-75
2022/09/29 05:42:44;;;;;;;;;;;6.70;99.90;;;;;;4986445;28;19970;-75
2022/09/29 05:45:10;;;;;;;;;;;6.70;99.90;;;;;;4986881;28;19933;-75
2022/09/29 05:47:39;;;;;;;;;;;6.70;99.90;;;;;;4985595;28;20295;-76
2022/09/29 05:50:05;;;;;;;;;;;6.70;99.90;;;;;;4986377;28;20041;-75
2022/09/29 05:52:31;;;;;;;;;;;6.70;99.90;;;;;;4980845;28;20008;-81
2022/09/29 05:54:57;;;;;;;;;;;6.70;99.90;;;;;;4986416;28;19930;-79
2022/09/29 05:57:22;;;;;;;;;;;6.70;99.90;;;;;;4984246;28;19926;-79
2022/09/29 05:59:48;;;;;;;;;;;6.80;99.90;;;;;;4986116;28;19926;-81
2022/09/29 06:02:13;;;;;;;;;;;6.70;99.90;;;;;;4987123;28;20444;-83
2022/09/29 06:04:39;;;;;;;;;;;6.70;99.90;;;;;;4986445;28;20399;-78
2022/09/29 06:07:04;;;;;;;;;;;6.70;99.90;;;;;;4985378;28;19930;-78
2022/09/29 06:09:31;;;;;;;;;;;6.70;99.90;;;;;;4986931;28;20301;-78
2022/09/29 06:11:57;;;;;;;;;;;6.70;99.90;;;;;;4987504;28;20377;-77
2022/09/29 06:14:23;;;;;;;;;;;6.70;99.90;;;;;;4987317;28;19973;-77
2022/09/29 06:16:48;;;;;;;;;;;6.70;99.90;;;;;;4987057;28;19976;-77
2022/09/29 06:19:14;;;;;;;;;;;6.70;99.90;;;;;;5002731;28;20017;-77
2022/09/29 06:21:39;;;;;;;;;;;6.70;99.90;;;;;;4985818;28;19933;-77
2022/09/29 06:24:06;;;;;;;;;;;6.70;99.90;;;;;;4987200;28;20384;-77
2022/09/29 06:26:32;;;;;;;;;;;6.70;99.90;;;;;;4987060;28;19932;-77
2022/09/29 06:28:57;;;;;;;;;;;6.70;99.90;;;;;;4985734;28;19926;-77
2022/09/29 06:31:25;;;;;;;;;;;6.60;99.90;;;;;;4985905;28;19993;-77
2022/09/29 06:33:50;;;;;;;;;;;6.60;99.90;;;;;;4986474;28;19930;-77
2022/09/29 06:39:02;;;;;;;;;;;6.70;99.90;;;;;;4986835;28;19944;-79
2022/09/29 06:41:28;;;;;;;;;;;6.70;99.90;;;;;;4987245;28;20406;-77
2022/09/29 06:43:54;;;;;;;;;;;6.70;99.90;;;;;;4986805;28;20301;-77
2022/09/29 06:46:21;;;;;;;;;;;6.70;99.90;;;;;;4986710;28;19929;-77
2022/09/29 06:48:47;;;;;;;;;;;6.70;99.90;;;;;;4986262;28;19926;-78
2022/09/29 06:51:13;;;;;;;;;;;6.80;99.90;;;;;;4986041;28;19980;-78
2022/09/29 06:53:39;;;;;;;;;;;6.80;99.90;;;;;;4985414;28;19933;-77
2022/09/29 06:56:05;;;;;;;;;;;6.80;99.90;;;;;;4986956;28;19929;-77
2022/09/29 06:58:30;;;;;;;;;;;6.90;99.90;;;;;;4985967;28;20028;-78
2022/09/29 07:00:58;;;;;;;;;;;6.90;99.90;;;;;;4985845;28;19961;-77
2022/09/29 07:03:24;;;;;;;;;;;6.90;99.90;;;;;;4986438;28;20059;-77
2022/09/29 07:05:49;;;;;;;;;;;7.00;99.90;;;;;;4986048;28;20020;-77
2022/09/29 07:08:15;;;;;;;;;;;7.00;99.90;;;;;;4985885;28;20396;-78
2022/09/29 07:10:41;;;;;;;;;;;7.10;99.90;;;;;;4984761;28;19929;-77
2022/09/29 07:13:08;;;;;;;;;;;7.10;99.90;;;;;;4985118;28;20331;-77
2022/09/29 07:15:34;;;;;;;;;;;7.10;99.90;;;;;;4986033;28;19926;-77
2022/09/29 07:18:00;;;;;;;;;;;7.20;99.90;;;;;;4984988;28;19933;-77
2022/09/29 07:20:27;;;;;;;;;;;7.20;99.90;;;;;;4986720;28;19926;-77
2022/09/29 07:22:52;;;;;;;;;;;7.20;99.90;;;;;;4984990;28;20365;-77
2022/09/29 07:25:18;;;;;;;;;;;7.30;99.90;;;;;;4985994;28;19926;-77
2022/09/29 07:27:43;;;;;;;;;;;7.30;99.90;;;;;;4986245;28;19926;-78
2022/09/29 07:30:09;;;;;;;;;;;7.40;99.90;;;;;;4985933;28;19921;-78
2022/09/29 07:32:34;;;;;;;;;;;7.50;99.90;;;;;;4985981;28;20012;-77
2022/09/29 07:35:00;;;;;;;;;;;7.60;99.90;;;;;;4986013;28;19922;-78
2022/09/29 07:37:26;;;;;;;;;;;7.60;99.90;;;;;;4985383;28;19926;-77
2022/09/29 07:39:53;;;;;;;;;;;7.60;99.90;;;;;;4984855;28;20450;-77
2022/09/29 07:42:20;;;;;;;;;;;7.70;99.90;;;;;;4986147;28;20407;-77
2022/09/29 07:44:45;;;;;;;;;;;7.70;99.90;;;;;;4985360;28;20032;-77
2022/09/29 07:47:12;;;;;;;;;;;7.80;99.90;;;;;;4985796;28;19926;-77
2022/09/29 07:49:38;;;;;;;;;;;7.90;99.90;;;;;;4984107;28;19926;-77
2022/09/29 07:52:04;;;;;;;;;;;7.90;99.90;;;;;;4985182;28;19971;-77
2022/09/29 07:54:30;;;;;;;;;;;7.90;99.90;;;;;;4985980;28;20331;-77
2022/09/29 07:56:56;;;;;;;;;;;7.90;99.90;;;;;;4984506;28;19973;-77
2022/09/29 07:59:21;;;;;;;;;;;8.00;99.90;;;;;;4985580;28;19926;-77
2022/09/29 08:01:47;;;;;;;;;;;8.10;99.90;;;;;;4987287;28;20365;-77
2022/09/29 08:04:13;;;;;;;;;;;8.10;99.90;;;;;;4989279;28;19933;-77
2022/09/29 08:06:39;;;;;;;;;;;8.20;99.90;;;;;;4988315;28;19933;-77
2022/09/29 08:09:05;;;;;;;;;;;8.30;99.90;;;;;;4989550;28;19929;-78
2022/09/29 08:11:31;;;;;;;;;;;8.30;99.90;;;;;;4987811;28;19999;-78
2022/09/29 08:13:56;;;;;;;;;;;8.30;99.90;;;;;;4989658;28;19926;-77
2022/09/29 08:16:22;;;;;;;;;;;8.50;99.90;;;;;;4989045;28;19925;-77
2022/09/29 08:18:49;;;;;;;;;;;8.50;99.90;;;;;;4988641;28;20060;-77
2022/09/29 08:21:14;;;;;;;;;;;8.50;99.90;;;;;;4988561;28;19932;-77
2022/09/29 08:23:41;;;;;;;;;;;8.60;99.90;;;;;;4988661;28;19929;-76
2022/09/29 08:26:07;;;;;;;;;;;8.70;99.90;;;;;;4989358;28;20024;-77
2022/09/29 08:28:33;;;;;;;;;;;8.80;99.90;;;;;;4989169;28;19926;-77
2022/09/29 08:31:03;;;;;;;;;;;8.80;99.90;;;;;;4989329;28;19934;-77
2022/09/29 08:33:29;;;;;;;;;;;8.80;99.90;;;;;;4988386;28;19932;-77
2022/09/29 08:35:56;;;;;;;;;;;8.90;99.90;;;;;;4987932;28;19933;-78
2022/09/29 08:38:21;;;;;;;;;;;9.00;99.90;;;;;;4989314;28;19926;-76
2022/09/29 08:40:47;;;;;;;;;;;9.00;99.90;;;;;;4987637;28;19925;-78
2022/09/29 08:43:19;;;;;;;;;;;9.10;99.90;;;;;;4988911;28;19925;-77
2022/09/29 08:45:53;;;;;;;;;;;9.20;99.90;;;;;;4988388;28;19948;-77
2022/09/29 08:48:20;;;;;;;;;;;9.30;99.90;;;;;;4987483;28;19932;-78
2022/09/29 08:50:47;;;;;;;;;;;9.30;99.90;;;;;;4988503;28;19933;-77
2022/09/29 08:53:15;;;;;;;;;;;9.40;99.90;;;;;;4986877;28;19984;-77
2022/09/29 08:55:45;;;;;;;;;;;9.50;99.90;;;;;;4988384;28;19972;-77
2022/09/29 08:58:12;;;;;;;;;;;9.50;99.90;;;;;;4988857;28;20343;-78
2022/09/29 09:00:52;;;;;;;;;;;9.60;99.90;;;;;;4987740;28;19926;-77
2022/09/29 09:03:31;;;;;;;;;;;9.70;99.90;;;;;;4987154;28;20496;-78
2022/09/29 09:06:05;;;;;;;;;;;9.70;99.90;;;;;;4986219;28;19930;-77
2022/09/29 09:08:41;;;;;;;;;;;9.80;99.90;;;;;;4987694;28;19979;-78
2022/09/29 09:11:24;;;;;;;;;;;9.90;99.90;;;;;;4986203;28;19937;-78
2022/09/29 09:14:06;;;;;;;;;;;9.90;99.90;;;;;;4987518;28;19937;-79
2022/09/29 09:16:51;;;;;;;;;;;10.00;99.90;;;;;;4985967;28;19925;-78
2022/09/29 09:19:29;;;;;;;;;;;10.00;99.90;;;;;;4987823;28;19936;-80
2022/09/29 09:21:59;;;;;;;;;;;10.10;99.90;;;;;;4986903;28;19932;-80
2022/09/29 09:24:32;;;;;;;;;;;10.20;99.90;;;;;;4986716;28;19929;-77
2022/09/29 09:26:57;;;;;;;;;;;10.20;99.90;;;;;;4986680;28;19922;-80
2022/09/29 09:29:29;;;;;;;;;;;10.20;99.90;;;;;;4987091;28;19953;-79
2022/09/29 09:31:56;;;;;;;;;;;10.30;99.90;;;;;;4986478;28;20439;-80
2022/09/29 09:34:43;;;;;;;;;;;10.40;99.90;;;;;;4987516;28;19957;-79
2022/09/29 09:37:15;;;;;;;;;;;10.40;99.90;;;;;;4985279;28;19936;-80
2022/09/29 09:39:50;;;;;;;;;;;10.40;99.90;;;;;;4986805;28;19972;-80
2022/09/29 09:42:22;;;;;;;;;;;10.50;99.90;;;;;;4987292;28;19918;-78
2022/09/29 09:44:51;;;;;;;;;;;10.50;99.90;;;;;;4986739;28;19926;-79
2022/09/29 09:47:32;;;;;;;;;;;10.60;99.90;;;;;;4985569;28;19933;-78
2022/09/29 09:50:12;;;;;;;;;;;10.70;99.90;;;;;;5001917;28;19980;-80
2022/09/29 09:52:42;;;;;;;;;;;10.80;99.90;;;;;;5000998;28;19925;-80
2022/09/29 09:55:15;;;;;;;;;;;10.80;99.90;;;;;;4986986;28;20345;-78
2022/09/29 09:57:51;;;;;;;;;;;10.90;99.90;;;;;;4987155;28;19926;-79
2022/09/29 10:00:16;;;;;;;;;;;10.90;99.90;;;;;;4987345;28;19961;-78
2022/09/29 10:02:46;;;;;;;;;;;11.00;99.90;;;;;;4986430;28;19981;-79
2022/09/29 10:05:13;;;;;;;;;;;11.00;99.90;;;;;;4987079;28;19933;-79
2022/09/29 10:07:39;;;;;;;;;;;11.00;99.90;;;;;;4985671;28;19926;-79
2022/09/29 10:10:12;;;;;;;;;;;11.00;99.90;;;;;;4985591;28;19932;-79
2022/09/29 10:12:37;;;;;;;;;;;11.10;99.90;;;;;;4985805;28;19933;-79
2022/09/29 10:15:04;;;;;;;;;;;11.20;99.90;;;;;;4986829;28;19926;-80
2022/09/29 10:17:37;;;;;;;;;;;11.20;99.90;;;;;;4994227;28;19926;-80
2022/09/29 10:20:04;;;;;;;;;;;11.20;99.90;;;;;;4987100;28;19926;-80
2022/09/29 10:22:31;;;;;;;;;;;11.20;99.90;;;;;;4966624;28;19926;-79
2022/09/29 10:25:18;;;;;;;;;;;11.20;99.90;;;;;;4982479;28;20016;-79
2022/09/29 10:27:54;;;;;;;;;;;11.30;99.90;;;;;;4985877;28;19965;-80
2022/09/29 10:30:32;;;;;;;;;;;11.30;99.90;;;;;;4985507;28;19929;-86
2022/09/29 10:32:59;;;;;;;;;;;11.30;99.90;;;;;;4970143;28;19932;-86
2022/09/29 10:35:31;;;;;;;;;;;11.30;99.90;;;;;;4975662;28;19933;-86
2022/09/29 10:38:01;;;;;;;;;;;11.40;99.90;;;;;;4949405;28;20051;-85
2022/09/29 10:40:27;;;;;;;;;;;11.50;99.90;;;;;;4983632;28;19956;-82
2022/09/29 10:42:53;;;;;;;;;;;11.50;99.90;;;;;;4989339;28;20431;-83
2022/09/29 10:45:20;;;;;;;;;;;11.60;99.90;;;;;;4985280;28;19930;-85
2022/09/29 10:47:58;;;;;;;;;;;11.70;99.90;;;;;;4994184;28;19925;-76
2022/09/29 10:50:23;;;;;;;;;;;11.70;99.90;;;;;;4985950;28;19926;-75
2022/09/29 10:52:53;;;;;;;;;;;11.80;99.90;;;;;;4986618;28;20752;-76
2022/09/29 10:55:20;;;;;;;;;;;11.80;99.90;;;;;;4989355;28;20020;-75
2022/09/29 10:57:47;;;;;;;;;;;11.90;99.90;;;;;;4984643;28;19933;-76
2022/09/29 11:00:31;;;;;;;;;;;12.00;99.90;;;;;;4985100;28;20005;-78
2022/09/29 11:03:09;;;;;;;;;;;12.00;99.90;;;;;;4970282;28;19930;-78
2022/09/29 11:05:35;;;;;;;;;;;12.10;99.90;;;;;;4965030;28;19930;-81
2022/09/29 11:08:01;;;;;;;;;;;12.10;99.90;;;;;;4997916;28;19926;-79
2022/09/29 11:10:37;;;;;;;;;;;12.10;99.90;;;;;;4985859;28;19936;-80
2022/09/29 11:13:26;;;;;;;;;;;12.20;99.90;;;;;;4985653;28;19925;-79
2022/09/29 11:16:05;;;;;;;;;;;12.20;99.90;;;;;;4990559;28;20061;-88
2022/09/29 11:18:34;;;;;;;;;;;12.30;99.90;;;;;;4985498;28;19926;-84
2022/09/29 11:21:09;;;;;;;;;;;12.30;99.90;;;;;;4983637;28;19933;-79
2022/09/29 11:23:39;;;;;;;;;;;12.40;99.90;;;;;;4983994;28;19926;-82
2022/09/29 11:26:23;;;;;;;;;;;12.40;99.90;;;;;;4986173;28;19937;-82
2022/09/29 11:29:09;;;;;;;;;;;12.50;99.90;;;;;;4983508;28;20016;-81
2022/09/29 11:31:42;;;;;;;;;;;12.50;99.90;;;;;;4984470;28;20281;-82
2022/09/29 11:34:12;;;;;;;;;;;12.50;99.90;;;;;;4985417;28;19926;-82
2022/09/29 11:36:52;;;;;;;;;;;12.50;99.90;;;;;;4982437;28;19933;-85
2022/09/29 11:39:39;;;;;;;;;;;12.50;99.90;;;;;;4999107;28;20383;-86
2022/09/29 11:42:18;;;;;;;;;;;12.50;99.90;;;;;;4983756;28;19936;-84
2022/09/29 11:44:54;;;;;;;;;;;12.50;99.90;;;;;;4959833;28;19984;-86
2022/09/29 11:47:28;;;;;;;;;;;12.50;99.90;;;;;;4999589;28;20538;-83
2022/09/29 11:50:07;;;;;;;;;;;12.60;99.90;;;;;;4977983;28;19976;-86
2022/09/29 11:52:52;;;;;;;;;;;12.50;99.90;;;;;;4999609;28;19925;-86
2022/09/29 11:55:36;;;;;;;;;;;12.50;99.90;;;;;;4995175;28;19973;-86
2022/09/29 11:58:18;;;;;;;;;;;12.50;99.90;;;;;;4981007;28;19926;-83
2022/09/29 12:01:00;;;;;;;;;;;12.60;99.90;;;;;;4983389;28;20394;-89
2022/09/29 12:03:29;;;;;;;;;;;12.50;99.90;;;;;;4985091;28;19977;-91
2022/09/29 12:06:06;;;;;;;;;;;12.60;99.90;;;;;;4984726;28;19983;-87
2022/09/29 12:08:52;;;;;;;;;;;12.60;99.90;;;;;;4968135;28;20017;-85
2022/09/29 12:11:33;;;;;;;;;;;12.60;99.90;;;;;;4968830;28;19925;-86
2022/09/29 12:13:58;;;;;;;;;;;12.60;99.90;;;;;;4974265;28;20298;-85
2022/09/29 12:16:34;;;;;;;;;;;12.60;99.90;;;;;;4985350;28;19973;-84
2022/09/29 12:19:05;;;;;;;;;;;12.60;99.90;;;;;;5000932;28;19926;-80
2022/09/29 12:21:51;;;;;;;;;;;12.60;99.90;;;;;;4983763;28;19932;-88
2022/09/29 12:24:17;;;;;;;;;;;12.70;99.90;;;;;;5011036;28;20002;-82
2022/09/29 12:26:46;;;;;;;;;;;12.70;99.90;;;;;;4985379;28;19926;-83
2022/09/29 12:29:25;;;;;;;;;;;12.70;99.90;;;;;;4984961;28;19929;-84
2022/09/29 12:31:52;;;;;;;;;;;12.80;99.90;;;;;;4983515;28;19925;-85
2022/09/29 12:34:20;;;;;;;;;;;12.80;99.90;;;;;;4982825;28;19922;-82
2022/09/29 12:36:52;;;;;;;;;;;12.90;99.90;;;;;;4985270;28;20053;-94
2022/09/29 12:39:28;;;;;;;;;;;12.90;99.90;;;;;;4987085;28;19992;-83
2022/09/29 12:42:03;;;;;;;;;;;13.00;99.90;;;;;;4985273;28;19925;-84
2022/09/29 12:44:33;;;;;;;;;;;13.10;99.90;;;;;;4985670;28;20024;-87
2022/09/29 12:47:15;;;;;;;;;;;13.10;99.90;;;;;;4985877;28;19925;-87
2022/09/29 12:50:00;;;;;;;;;;;13.20;99.90;;;;;;4971710;28;19932;-90
2022/09/29 12:52:30;;;;;;;;;;;13.20;99.90;;;;;;4988149;28;19953;-84
2022/09/29 12:54:58;;;;;;;;;;;13.20;99.90;;;;;;4988882;28;20304;-91
2022/09/29 12:57:26;;;;;;;;;;;13.20;99.90;;;;;;4970171;28;20454;-80
2022/09/29 12:59:52;;;;;;;;;;;13.20;99.90;;;;;;4980318;28;20679;-81
2022/09/29 13:02:30;;;;;;;;;;;13.20;99.90;;;;;;4990452;28;19929;-78
2022/09/29 13:05:15;;;;;;;;;;;13.20;99.90;;;;;;4963211;28;19926;-80
2022/09/29 13:07:50;;;;;;;;;;;13.20;99.90;;;;;;4986829;28;19932;-79
2022/09/29 13:10:30;;;;;;;;;;;13.30;99.90;;;;;;4987077;28;20020;-83
2022/09/29 13:12:59;;;;;;;;;;;13.30;99.90;;;;;;5009039;28;20575;-82
2022/09/29 13:15:48;;;;;;;;;;;13.30;99.90;;;;;;4995778;28;20499;-87
2022/09/29 13:18:23;;;;;;;;;;;13.40;99.90;;;;;;4970522;28;19979;-88
2022/09/29 13:20:51;;;;;;;;;;;13.40;99.90;;;;;;4987657;28;19932;-81
2022/09/29 13:23:32;;;;;;;;;;;13.40;99.90;;;;;;4987263;28;19979;-81
2022/09/29 13:26:05;;;;;;;;;;;13.40;99.90;;;;;;4988800;28;20009;-81
2022/09/29 13:28:43;;;;;;;;;;;13.40;99.90;;;;;;5015047;28;19949;-82
2022/09/29 13:31:11;;;;;;;;;;;13.40;99.90;;;;;;5011855;28;20360;-82
2022/09/29 13:33:36;;;;;;;;;;;13.30;99.90;;;;;;4994979;28;20013;-80
2022/09/29 13:36:02;;;;;;;;;;;13.30;99.90;;;;;;4982198;28;20334;-82
2022/09/29 13:38:30;;;;;;;;;;;13.30;99.90;;;;;;4991720;28;19930;-82
2022/09/29 13:41:16;;;;;;;;;;;13.30;99.90;;;;;;4986748;28;19968;-83
2022/09/29 13:43:48;;;;;;;;;;;13.30;99.90;;;;;;4986866;28;19932;-83
2022/09/29 13:46:40;;;;;;;;;;;13.20;99.90;;;;;;4997264;28;20404;-80
2022/09/29 13:49:10;;;;;;;;;;;13.20;99.90;;;;;;4991855;28;20376;-82
2022/09/29 13:51:38;;;;;;;;;;;13.20;99.90;;;;;;4981449;28;19925;-83
2022/09/29 13:54:13;;;;;;;;;;;13.30;99.90;;;;;;4994187;28;19941;-82
2022/09/29 13:56:38;;;;;;;;;;;13.30;99.90;;;;;;5012372;28;19934;-82
2022/09/29 13:59:12;;;;;;;;;;;13.40;99.90;;;;;;4987227;28;19930;-80
2022/09/29 14:01:38;;;;;;;;;;;13.40;99.90;;;;;;4995133;28;19926;-82
2022/09/29 14:04:22;;;;;;;;;;;13.40;99.90;;;;;;4990643;28;20420;-82
2022/09/29 14:06:48;;;;;;;;;;;13.50;99.90;;;;;;4984725;28;20392;-82
2022/09/29 14:09:18;;;;;;;;;;;13.50;99.90;;;;;;4984495;28;19926;-82
2022/09/29 14:11:50;;;;;;;;;;;13.60;99.90;;;;;;4990051;28;20349;-82
2022/09/29 14:14:23;;;;;;;;;;;13.60;99.90;;;;;;4997974;28;19932;-83
2022/09/29 14:16:54;;;;;;;;;;;13.60;99.90;;;;;;4987701;28;19929;-80
2022/09/29 14:19:39;;;;;;;;;;;13.60;99.90;;;;;;4992641;28;19930;-81
2022/09/29 14:22:24;;;;;;;;;;;13.70;99.90;;;;;;4973847;28;19929;-80
2022/09/29 14:24:51;;;;;;;;;;;13.70;99.90;;;;;;4990501;28;19936;-82
2022/09/29 14:27:17;;;;;;;;;;;13.70;99.90;;;;;;4990945;28;19933;-83
2022/09/29 14:29:46;;;;;;;;;;;13.70;99.90;;;;;;4991028;28;20271;-84
2022/09/29 14:32:19;;;;;;;;;;;13.80;99.90;;;;;;4968473;28;19929;-82
2022/09/29 14:34:44;;;;;;;;;;;13.70;99.90;;;;;;4991093;28;19929;-84
2022/09/29 14:37:17;;;;;;;;;;;13.70;99.90;;;;;;4989711;28;20296;-80
2022/09/29 14:40:26;;;;;;;;;;;13.70;99.90;;;;;;4984096;28;20439;-82
2022/09/29 14:42:28;;;;;;;;;;;13.70;99.90;;;;;;4985372;28;19962;-82
2022/09/29 14:53:35;;;;;;;;;;;13.80;99.90;;;;;;4967207;28;20018;-84